createdAt,value
2022-11-06T00:00:04.596Z,1001.39
2022-11-06T00:01:04.560Z,1001.33
2022-11-06T00:02:04.618Z,1001.31
2022-11-06T00:03:04.671Z,1001.31
2022-11-06T00:04:04.543Z,1001.23
2022-11-06T00:05:04.514Z,1001.24
2022-11-06T00:06:04.509Z,1001.21
2022-11-06T00:07:04.509Z,1001.10
2022-11-06T00:08:04.486Z,1001.10
2022-11-06T00:09:04.503Z,1001.05
2022-11-06T00:10:04.474Z,1000.99
2022-11-06T00:11:04.446Z,1001.02
2022-11-06T00:12:04.441Z,1000.92
2022-11-06T00:13:04.444Z,1001.02
2022-11-06T00:14:04.407Z,1001.01
2022-11-06T00:15:04.440Z,1000.99
2022-11-06T00:16:04.393Z,1001.00
2022-11-06T00:17:04.440Z,1000.95
2022-11-06T00:18:04.366Z,1000.97
2022-11-06T00:19:04.361Z,1001.02
2022-11-06T00:20:04.374Z,1001.00
2022-11-06T00:21:04.338Z,1000.91
2022-11-06T00:22:04.330Z,1001.03
2022-11-06T00:23:04.325Z,1000.99
2022-11-06T00:24:04.289Z,1001.05
2022-11-06T00:25:04.280Z,1000.99
2022-11-06T00:26:04.863Z,1000.98
2022-11-06T00:27:04.392Z,1000.97
2022-11-06T00:28:04.266Z,1000.98
2022-11-06T00:29:04.237Z,1000.98
2022-11-06T00:30:04.242Z,1000.96
2022-11-06T00:31:04.245Z,1001.00
2022-11-06T00:32:04.239Z,1000.91
2022-11-06T00:33:04.188Z,1000.87
2022-11-06T00:34:04.197Z,1000.86
2022-11-06T00:35:04.194Z,1000.80
2022-11-06T00:36:04.162Z,1000.78
2022-11-06T00:37:04.186Z,1000.77
2022-11-06T00:38:04.174Z,1000.84
2022-11-06T00:39:04.171Z,1000.80
2022-11-06T00:40:04.219Z,1000.76
2022-11-06T00:41:04.124Z,1000.75
2022-11-06T00:42:04.103Z,1000.79
2022-11-06T00:43:04.185Z,1000.76
2022-11-06T00:44:04.071Z,1000.82
2022-11-06T00:45:04.058Z,1000.78
2022-11-06T00:46:04.221Z,1000.81
2022-11-06T00:47:04.029Z,1000.84
2022-11-06T00:48:04.032Z,1000.87
2022-11-06T00:49:04.371Z,1000.91
2022-11-06T00:50:04.008Z,1000.92
2022-11-06T00:51:04.290Z,1000.91
2022-11-06T00:52:03.980Z,1000.86
2022-11-06T00:53:03.970Z,1000.92
2022-11-06T00:54:03.985Z,1000.88
2022-11-06T00:55:03.942Z,1000.90
2022-11-06T00:56:03.931Z,1000.95
2022-11-06T00:57:03.958Z,1000.97
2022-11-06T00:58:03.911Z,1000.98
2022-11-06T00:59:03.916Z,1000.97
2022-11-06T01:00:04.489Z,1000.95
2022-11-06T01:01:03.975Z,1000.91
2022-11-06T01:02:04.066Z,1000.92
2022-11-06T01:03:04.011Z,1000.90
2022-11-06T01:04:03.840Z,1000.90
2022-11-06T01:05:03.835Z,1000.88
2022-11-06T01:06:03.845Z,1000.82
2022-11-06T01:07:03.816Z,1000.86
2022-11-06T01:08:03.807Z,1000.83
2022-11-06T01:09:03.795Z,1000.83
2022-11-06T01:10:03.780Z,1000.85
2022-11-06T01:11:03.804Z,1000.92
2022-11-06T01:12:13.409Z,1000.80
2022-11-06T01:13:04.965Z,1000.81
2022-11-06T01:14:03.755Z,1000.89
2022-11-06T01:15:03.722Z,1000.85
2022-11-06T01:16:03.703Z,1000.85
2022-11-06T01:17:03.736Z,1000.86
2022-11-06T01:18:03.685Z,1000.93
2022-11-06T01:19:03.674Z,1000.82
2022-11-06T01:20:03.663Z,1000.82
2022-11-06T01:21:03.649Z,1000.79
2022-11-06T01:22:03.633Z,1000.82
2022-11-06T01:23:03.695Z,1000.75
2022-11-06T01:24:03.636Z,1000.72
2022-11-06T01:25:03.600Z,1000.69
2022-11-06T01:26:03.608Z,1000.66
2022-11-06T01:27:27.595Z,1000.66
2022-11-06T01:28:04.585Z,1000.77
2022-11-06T01:29:03.587Z,1000.81
2022-11-06T01:30:03.536Z,1000.76
2022-11-06T01:31:03.572Z,1000.81
2022-11-06T01:32:03.546Z,1000.84
2022-11-06T01:33:03.614Z,1000.83
2022-11-06T01:34:03.528Z,1000.91
2022-11-06T01:35:03.855Z,1000.80
2022-11-06T01:36:03.492Z,1000.82
2022-11-06T01:37:03.975Z,1000.76
2022-11-06T01:38:03.498Z,1000.81
2022-11-06T01:39:03.447Z,1000.83
2022-11-06T01:40:03.433Z,1000.76
2022-11-06T01:41:03.652Z,1000.79
2022-11-06T01:42:03.406Z,1000.83
2022-11-06T01:43:03.412Z,1000.78
2022-11-06T01:44:06.153Z,1000.79
2022-11-06T01:45:04.386Z,1000.82
2022-11-06T01:46:03.776Z,1000.82
2022-11-06T01:47:03.390Z,1000.76
2022-11-06T01:48:03.367Z,1000.80
2022-11-06T01:49:03.398Z,1000.77
2022-11-06T01:50:03.316Z,1000.82
2022-11-06T01:51:03.309Z,1000.74
2022-11-06T01:52:03.297Z,1000.76
2022-11-06T01:53:03.309Z,1000.74
2022-11-06T01:54:03.283Z,1000.75
2022-11-06T01:55:03.267Z,1000.74
2022-11-06T01:56:03.314Z,1000.76
2022-11-06T01:57:03.300Z,1000.77
2022-11-06T01:58:03.476Z,1000.71
2022-11-06T01:59:03.237Z,1000.71
2022-11-06T02:00:03.233Z,1000.69
2022-11-06T02:01:03.201Z,1000.64
2022-11-06T02:02:03.289Z,1000.66
2022-11-06T02:03:03.231Z,1000.69
2022-11-06T02:04:03.159Z,1000.68
2022-11-06T02:05:03.377Z,1000.65
2022-11-06T02:06:03.138Z,1000.72
2022-11-06T02:07:03.129Z,1000.66
2022-11-06T02:08:03.138Z,1000.69
2022-11-06T02:09:03.097Z,1000.65
2022-11-06T02:10:03.142Z,1000.73
2022-11-06T02:11:03.218Z,1000.81
2022-11-06T02:12:03.068Z,1000.71
2022-11-06T02:13:03.057Z,1000.68
2022-11-06T02:14:03.043Z,1000.68
2022-11-06T02:15:03.041Z,1000.71
2022-11-06T02:16:03.397Z,1000.70
2022-11-06T02:17:03.010Z,1000.75
2022-11-06T02:18:02.999Z,1000.74
2022-11-06T02:19:03.007Z,1000.69
2022-11-06T02:20:02.981Z,1000.70
2022-11-06T02:21:02.980Z,1000.65
2022-11-06T02:22:03.011Z,1000.61
2022-11-06T02:23:03.223Z,1000.53
2022-11-06T02:24:02.943Z,1000.44
2022-11-06T02:25:02.914Z,1000.36
2022-11-06T02:26:02.910Z,1000.39
2022-11-06T02:27:02.909Z,1000.37
2022-11-06T02:28:02.910Z,1000.35
2022-11-06T02:29:02.873Z,1000.40
2022-11-06T02:30:02.873Z,1000.36
2022-11-06T02:31:02.890Z,1000.30
2022-11-06T02:32:02.929Z,1000.34
2022-11-06T02:33:02.868Z,1000.38
2022-11-06T02:34:02.821Z,1000.33
2022-11-06T02:35:02.814Z,1000.28
2022-11-06T02:36:02.806Z,1000.35
2022-11-06T02:37:02.781Z,1000.39
2022-11-06T02:38:02.774Z,1000.39
2022-11-06T02:39:02.789Z,1000.39
2022-11-06T02:40:02.757Z,1000.42
2022-11-06T02:41:02.826Z,1000.34
2022-11-06T02:42:02.732Z,1000.38
2022-11-06T02:43:02.755Z,1000.35
2022-11-06T02:44:02.734Z,1000.36
2022-11-06T02:45:03.410Z,1000.34
2022-11-06T02:46:02.696Z,1000.31
2022-11-06T02:47:02.685Z,1000.26
2022-11-06T02:48:02.935Z,1000.27
2022-11-06T02:49:02.652Z,1000.22
2022-11-06T02:50:02.683Z,1000.24
2022-11-06T02:51:02.624Z,1000.29
2022-11-06T02:52:02.617Z,1000.20
2022-11-06T02:53:02.610Z,1000.28
2022-11-06T02:54:02.752Z,1000.25
2022-11-06T02:55:02.576Z,1000.23
2022-11-06T02:56:02.586Z,1000.23
2022-11-06T02:57:02.563Z,1000.24
2022-11-06T02:58:02.558Z,1000.25
2022-11-06T02:59:02.971Z,1000.20
2022-11-06T03:00:02.536Z,1000.26
2022-11-06T03:01:02.557Z,1000.20
2022-11-06T03:02:02.593Z,1000.20
2022-11-06T03:03:02.540Z,1000.15
2022-11-06T03:04:02.758Z,1000.12
2022-11-06T03:05:02.476Z,1000.19
2022-11-06T03:06:02.469Z,1000.17
2022-11-06T03:07:02.494Z,1000.21
2022-11-06T03:08:02.427Z,1000.21
2022-11-06T03:09:02.425Z,1000.21
2022-11-06T03:10:02.411Z,1000.21
2022-11-06T03:11:02.399Z,1000.22
2022-11-06T03:12:02.385Z,1000.16
2022-11-06T03:13:02.440Z,1000.27
2022-11-06T03:14:02.368Z,1000.24
2022-11-06T03:15:02.348Z,1000.22
2022-11-06T03:16:02.348Z,1000.21
2022-11-06T03:17:02.334Z,1000.18
2022-11-06T03:18:02.307Z,1000.24
2022-11-06T03:19:02.759Z,1000.23
2022-11-06T03:20:02.287Z,1000.25
2022-11-06T03:21:02.288Z,1000.33
2022-11-06T03:22:02.298Z,1000.31
2022-11-06T03:23:02.846Z,1000.30
2022-11-06T03:24:02.278Z,1000.30
2022-11-06T03:25:02.236Z,1000.30
2022-11-06T03:26:02.240Z,1000.37
2022-11-06T03:27:02.217Z,1000.30
2022-11-06T03:28:02.201Z,1000.39
2022-11-06T03:29:02.194Z,1000.39
2022-11-06T03:30:02.208Z,1000.44
2022-11-06T03:31:02.179Z,1000.41
2022-11-06T03:32:02.157Z,1000.38
2022-11-06T03:33:02.182Z,1000.41
2022-11-06T03:34:02.138Z,1000.29
2022-11-06T03:35:02.153Z,1000.28
2022-11-06T03:36:02.132Z,1000.25
2022-11-06T03:37:02.116Z,1000.27
2022-11-06T03:38:02.092Z,1000.26
2022-11-06T03:39:02.078Z,1000.25
2022-11-06T03:40:02.066Z,1000.19
2022-11-06T03:41:02.092Z,1000.26
2022-11-06T03:42:02.359Z,1000.24
2022-11-06T03:43:02.037Z,1000.19
2022-11-06T03:44:02.020Z,1000.16
2022-11-06T03:45:02.004Z,1000.20
2022-11-06T03:46:02.004Z,1000.21
2022-11-06T03:47:02.070Z,1000.21
2022-11-06T03:48:01.988Z,1000.20
2022-11-06T03:49:01.958Z,1000.16
2022-11-06T03:50:01.977Z,1000.12
2022-11-06T03:51:01.946Z,1000.16
2022-11-06T03:52:01.955Z,1000.17
2022-11-06T03:53:01.911Z,1000.12
2022-11-06T03:54:01.913Z,1000.11
2022-11-06T03:55:01.908Z,1000.12
2022-11-06T03:56:01.879Z,1000.09
2022-11-06T03:57:01.911Z,1000.15
2022-11-06T03:58:01.894Z,1000.11
2022-11-06T03:59:01.892Z,1000.12
2022-11-06T04:00:01.842Z,1000.13
2022-11-06T04:01:01.851Z,1000.08
2022-11-06T04:02:01.941Z,1000.11
2022-11-06T04:03:01.836Z,1000.05
2022-11-06T04:04:01.848Z,1000.08
2022-11-06T04:05:01.782Z,1000.07
2022-11-06T04:06:01.775Z,1000.04
2022-11-06T04:07:01.755Z,1000.05
2022-11-06T04:08:01.790Z,1000.08
2022-11-06T04:09:01.733Z,1000.12
2022-11-06T04:10:01.743Z,1000.07
2022-11-06T04:11:01.966Z,1000.07
2022-11-06T04:12:01.712Z,1000.08
2022-11-06T04:13:01.688Z,1000.13
2022-11-06T04:14:01.675Z,1000.09
2022-11-06T04:15:01.708Z,1000.10
2022-11-06T04:16:01.654Z,1000.05
2022-11-06T04:17:01.678Z,1000.02
2022-11-06T04:18:01.641Z,1000.05
2022-11-06T04:19:01.634Z,1000.11
2022-11-06T04:20:01.604Z,1000.03
2022-11-06T04:21:01.626Z,1000.05
2022-11-06T04:22:01.614Z,1000.01
2022-11-06T04:23:01.574Z,1000.07
2022-11-06T04:24:01.564Z,1000.07
2022-11-06T04:25:01.575Z,1000.11
2022-11-06T04:26:01.537Z,1000.05
2022-11-06T04:27:01.596Z,1000.05
2022-11-06T04:28:01.534Z,999.99
2022-11-06T04:29:01.507Z,999.93
2022-11-06T04:30:01.510Z,999.94
2022-11-06T04:31:01.509Z,999.99
2022-11-06T04:32:01.518Z,999.91
2022-11-06T04:33:01.468Z,1000.00
2022-11-06T04:34:01.447Z,1000.00
2022-11-06T04:35:01.449Z,999.98
2022-11-06T04:36:01.456Z,999.97
2022-11-06T04:37:01.435Z,999.93
2022-11-06T04:38:01.477Z,999.95
2022-11-06T04:39:01.395Z,999.94
2022-11-06T04:40:01.986Z,999.93
2022-11-06T04:41:01.563Z,999.89
2022-11-06T04:42:01.370Z,999.98
2022-11-06T04:43:01.345Z,999.94
2022-11-06T04:44:01.376Z,999.97
2022-11-06T04:45:01.334Z,999.96
2022-11-06T04:46:01.387Z,1000.00
2022-11-06T04:47:01.324Z,1000.08
2022-11-06T04:48:01.303Z,1000.06
2022-11-06T04:49:01.634Z,1000.01
2022-11-06T04:50:01.275Z,1000.01
2022-11-06T04:51:01.530Z,1000.09
2022-11-06T04:52:01.355Z,1000.09
2022-11-06T04:53:01.235Z,1000.05
2022-11-06T04:54:01.267Z,1000.02
2022-11-06T04:55:01.237Z,1000.02
2022-11-06T04:56:01.649Z,1000.04
2022-11-06T04:57:01.196Z,999.98
2022-11-06T04:58:01.200Z,1000.05
2022-11-06T04:59:01.182Z,1000.11
2022-11-06T05:00:01.595Z,1000.14
2022-11-06T05:01:01.404Z,1000.10
2022-11-06T05:02:01.303Z,1000.10
2022-11-06T05:03:01.120Z,1000.10
2022-11-06T05:04:01.142Z,1000.07
2022-11-06T05:05:01.110Z,1000.01
2022-11-06T05:06:01.533Z,1000.02
2022-11-06T05:07:01.100Z,1000.00
2022-11-06T05:08:01.159Z,999.98
2022-11-06T05:09:01.059Z,1000.09
2022-11-06T05:10:01.179Z,1000.09
2022-11-06T05:11:01.038Z,1000.17
2022-11-06T05:12:01.085Z,1000.15
2022-11-06T05:13:01.012Z,1000.14
2022-11-06T05:14:00.991Z,1000.11
2022-11-06T05:15:01.021Z,1000.19
2022-11-06T05:16:00.973Z,1000.14
2022-11-06T05:17:01.005Z,1000.22
2022-11-06T05:18:01.043Z,1000.16
2022-11-06T05:19:00.940Z,1000.10
2022-11-06T05:20:01.055Z,1000.06
2022-11-06T05:21:01.060Z,1000.11
2022-11-06T05:22:00.910Z,1000.11
2022-11-06T05:23:01.100Z,1000.06
2022-11-06T05:24:00.937Z,1000.07
2022-11-06T05:25:00.912Z,1000.13
2022-11-06T05:26:00.868Z,1000.10
2022-11-06T05:27:00.855Z,1000.00
2022-11-06T05:28:00.849Z,1000.10
2022-11-06T05:29:01.238Z,1000.04
2022-11-06T05:30:01.056Z,1000.04
2022-11-06T05:31:00.802Z,1000.06
2022-11-06T05:32:00.805Z,1000.06
2022-11-06T05:33:00.803Z,1000.08
2022-11-06T05:34:00.767Z,1000.00
2022-11-06T05:35:00.796Z,1000.01
2022-11-06T05:36:00.810Z,999.98
2022-11-06T05:37:00.843Z,999.95
2022-11-06T05:38:00.766Z,999.94
2022-11-06T05:39:00.715Z,999.94
2022-11-06T05:40:00.730Z,999.89
2022-11-06T05:41:00.804Z,999.89
2022-11-06T05:42:00.685Z,999.87
2022-11-06T05:43:00.696Z,999.92
2022-11-06T05:44:00.718Z,999.91
2022-11-06T05:45:00.636Z,999.91
2022-11-06T05:46:00.834Z,999.93
2022-11-06T05:47:00.738Z,999.92
2022-11-06T05:48:00.865Z,999.88
2022-11-06T05:49:00.609Z,999.78
2022-11-06T05:50:00.653Z,999.80
2022-11-06T05:51:00.573Z,999.81
2022-11-06T05:52:00.567Z,999.77
2022-11-06T05:53:00.575Z,999.78
2022-11-06T05:54:00.555Z,999.75
2022-11-06T05:55:00.527Z,999.75
2022-11-06T05:56:00.517Z,999.81
2022-11-06T05:57:00.518Z,999.74
2022-11-06T05:58:00.515Z,999.77
2022-11-06T05:59:00.505Z,999.79
2022-11-06T06:00:00.499Z,999.76
2022-11-06T06:01:00.459Z,999.72
2022-11-06T06:02:00.663Z,999.71
2022-11-06T06:03:00.561Z,999.71
2022-11-06T06:04:00.477Z,999.66
2022-11-06T06:05:00.428Z,999.60
2022-11-06T06:06:00.396Z,999.65
2022-11-06T06:07:00.429Z,999.66
2022-11-06T06:08:00.391Z,999.61
2022-11-06T06:09:00.379Z,999.66
2022-11-06T06:10:00.389Z,999.67
2022-11-06T06:11:00.347Z,999.70
2022-11-06T06:12:00.416Z,999.68
2022-11-06T06:13:00.323Z,999.66
2022-11-06T06:14:01.007Z,999.60
2022-11-06T06:15:00.302Z,999.55
2022-11-06T06:16:00.325Z,999.55
2022-11-06T06:17:00.369Z,999.59
2022-11-06T06:18:00.262Z,999.54
2022-11-06T06:19:00.278Z,999.53
2022-11-06T06:20:00.273Z,999.49
2022-11-06T06:21:00.325Z,999.48
2022-11-06T06:22:00.218Z,999.49
2022-11-06T06:23:00.209Z,999.43
2022-11-06T06:24:00.199Z,999.40
2022-11-06T06:25:00.668Z,999.41
2022-11-06T06:26:00.271Z,999.36
2022-11-06T06:27:00.339Z,999.34
2022-11-06T06:28:00.163Z,999.29
2022-11-06T06:29:00.307Z,999.26
2022-11-06T06:30:00.137Z,999.20
2022-11-06T06:31:01.804Z,999.23
2022-11-06T06:32:00.112Z,999.19
2022-11-06T06:33:00.126Z,999.21
2022-11-06T06:34:00.471Z,999.27
2022-11-06T06:35:00.247Z,999.30
2022-11-06T06:36:00.061Z,999.37
2022-11-06T06:37:00.092Z,999.35
2022-11-06T06:38:00.044Z,999.30
2022-11-06T06:39:00.041Z,999.31
2022-11-06T06:40:00.010Z,999.31
2022-11-06T06:41:00.002Z,999.33
2022-11-06T06:41:59.992Z,999.33
2022-11-06T06:42:59.995Z,999.27
2022-11-06T06:44:00.121Z,999.27
2022-11-06T06:45:00.135Z,999.27
2022-11-06T06:45:59.947Z,999.28
2022-11-06T06:46:59.934Z,999.23
2022-11-06T06:47:59.924Z,999.17
2022-11-06T06:48:59.912Z,999.09
2022-11-06T06:49:59.970Z,999.14
2022-11-06T06:50:59.882Z,999.18
2022-11-06T06:51:59.874Z,999.10
2022-11-06T06:52:59.883Z,999.15
2022-11-06T06:53:59.861Z,999.19
2022-11-06T06:54:59.903Z,999.14
2022-11-06T06:55:59.884Z,999.03
2022-11-06T06:56:59.830Z,999.09
2022-11-06T06:57:59.819Z,999.05
2022-11-06T06:58:59.821Z,999.09
2022-11-06T06:59:59.803Z,999.05
2022-11-06T07:00:59.839Z,999.05
2022-11-06T07:01:59.840Z,999.01
2022-11-06T07:02:59.752Z,999.07
2022-11-06T07:04:03.995Z,999.07
2022-11-06T07:04:59.753Z,999.08
2022-11-06T07:05:59.759Z,999.09
2022-11-06T07:06:59.723Z,999.05
2022-11-06T07:07:59.693Z,999.09
2022-11-06T07:08:59.682Z,999.10
2022-11-06T07:09:59.693Z,999.07
2022-11-06T07:10:59.679Z,999.13
2022-11-06T07:11:59.692Z,999.07
2022-11-06T07:12:59.699Z,999.09
2022-11-06T07:13:59.684Z,999.04
2022-11-06T07:14:59.614Z,999.05
2022-11-06T07:15:59.698Z,999.03
2022-11-06T07:16:59.600Z,999.02
2022-11-06T07:17:59.635Z,999.01
2022-11-06T07:18:59.575Z,999.03
2022-11-06T07:19:59.563Z,999.03
2022-11-06T07:20:59.557Z,999.09
2022-11-06T07:21:59.568Z,999.08
2022-11-06T07:22:59.595Z,999.06
2022-11-06T07:24:00.048Z,999.07
2022-11-06T07:24:59.498Z,999.07
2022-11-06T07:25:59.509Z,999.07
2022-11-06T07:26:59.496Z,999.10
2022-11-06T07:28:02.700Z,999.07
2022-11-06T07:28:59.507Z,999.07
2022-11-06T07:29:59.451Z,999.12
2022-11-06T07:30:59.437Z,999.08
2022-11-06T07:31:59.497Z,999.09
2022-11-06T07:32:59.466Z,999.09
2022-11-06T07:33:59.417Z,999.10
2022-11-06T07:34:59.410Z,999.14
2022-11-06T07:35:59.378Z,999.17
2022-11-06T07:37:02.008Z,999.13
2022-11-06T07:38:00.366Z,999.15
2022-11-06T07:38:59.355Z,999.18
2022-11-06T07:39:59.329Z,999.22
2022-11-06T07:40:59.358Z,999.18
2022-11-06T07:41:59.309Z,999.20
2022-11-06T07:42:59.306Z,999.24
2022-11-06T07:43:59.292Z,999.21
2022-11-06T07:44:59.288Z,999.22
2022-11-06T07:45:59.296Z,999.16
2022-11-06T07:46:59.259Z,999.19
2022-11-06T07:47:59.467Z,999.12
2022-11-06T07:48:59.239Z,999.11
2022-11-06T07:49:59.230Z,999.08
2022-11-06T07:50:59.448Z,999.05
2022-11-06T07:51:59.245Z,999.10
2022-11-06T07:52:59.187Z,999.09
2022-11-06T07:53:59.176Z,999.12
2022-11-06T07:54:59.161Z,999.13
2022-11-06T07:55:59.168Z,999.13
2022-11-06T07:56:59.139Z,999.11
2022-11-06T07:57:59.195Z,999.07
2022-11-06T07:58:59.108Z,999.04
2022-11-06T07:59:59.149Z,999.08
2022-11-06T08:00:59.425Z,999.08
2022-11-06T08:01:59.156Z,998.99
2022-11-06T08:02:59.070Z,999.12
2022-11-06T08:03:59.223Z,999.05
2022-11-06T08:04:59.080Z,999.04
2022-11-06T08:05:59.061Z,998.97
2022-11-06T08:06:59.073Z,999.00
2022-11-06T08:07:59.009Z,998.95
2022-11-06T08:08:59.289Z,998.95
2022-11-06T08:09:59.017Z,998.91
2022-11-06T08:10:58.985Z,998.96
2022-11-06T08:11:59.028Z,998.90
2022-11-06T08:12:58.954Z,998.90
2022-11-06T08:13:58.949Z,998.87
2022-11-06T08:14:58.962Z,998.98
2022-11-06T08:15:59.141Z,998.99
2022-11-06T08:16:58.933Z,999.03
2022-11-06T08:17:58.948Z,999.03
2022-11-06T08:18:59.088Z,999.06
2022-11-06T08:19:59.502Z,999.06
2022-11-06T08:20:58.890Z,999.01
2022-11-06T08:21:58.915Z,999.07
2022-11-06T08:22:58.851Z,999.01
2022-11-06T08:23:59.008Z,999.09
2022-11-06T08:24:58.822Z,999.08
2022-11-06T08:25:58.891Z,999.16
2022-11-06T08:26:58.826Z,999.09
2022-11-06T08:27:59.252Z,999.09
2022-11-06T08:28:58.764Z,999.06
2022-11-06T08:29:58.753Z,999.04
2022-11-06T08:30:58.879Z,999.09
2022-11-06T08:31:59.057Z,999.05
2022-11-06T08:32:59.566Z,999.08
2022-11-06T08:33:58.813Z,999.08
2022-11-06T08:34:59.235Z,999.04
2022-11-06T08:35:58.693Z,999.06
2022-11-06T08:36:59.183Z,999.04
2022-11-06T08:37:58.675Z,998.99
2022-11-06T08:38:58.656Z,998.98
2022-11-06T08:39:58.656Z,999.00
2022-11-06T08:40:58.636Z,998.97
2022-11-06T08:41:58.753Z,998.97
2022-11-06T08:42:58.633Z,998.99
2022-11-06T08:43:58.920Z,999.01
2022-11-06T08:44:58.648Z,999.00
2022-11-06T08:45:58.812Z,999.07
2022-11-06T08:46:58.575Z,999.04
2022-11-06T08:47:58.575Z,999.08
2022-11-06T08:48:58.559Z,999.07
2022-11-06T08:49:58.565Z,999.01
2022-11-06T08:50:58.645Z,998.99
2022-11-06T08:51:58.516Z,999.01
2022-11-06T08:52:58.498Z,998.99
2022-11-06T08:53:58.581Z,998.96
2022-11-06T08:54:58.547Z,998.90
2022-11-06T08:55:58.477Z,998.88
2022-11-06T08:56:58.511Z,998.91
2022-11-06T08:57:58.436Z,998.87
2022-11-06T08:58:58.768Z,998.79
2022-11-06T08:59:58.526Z,998.81
2022-11-06T09:00:58.442Z,998.73
2022-11-06T09:01:58.510Z,998.67
2022-11-06T09:02:58.391Z,998.64
2022-11-06T09:03:58.369Z,998.63
2022-11-06T09:04:58.368Z,998.64
2022-11-06T09:05:58.428Z,998.59
2022-11-06T09:06:58.362Z,998.62
2022-11-06T09:07:58.356Z,998.64
2022-11-06T09:08:58.329Z,998.66
2022-11-06T09:09:58.308Z,998.62
2022-11-06T09:10:59.000Z,998.62
2022-11-06T09:11:58.298Z,998.56
2022-11-06T09:12:58.496Z,998.59
2022-11-06T09:13:58.270Z,998.57
2022-11-06T09:14:58.258Z,998.49
2022-11-06T09:15:58.248Z,998.51
2022-11-06T09:16:58.261Z,998.48
2022-11-06T09:17:58.313Z,998.48
2022-11-06T09:18:58.221Z,998.51
2022-11-06T09:19:58.224Z,998.48
2022-11-06T09:20:58.200Z,998.44
2022-11-06T09:21:58.172Z,998.57
2022-11-06T09:22:58.192Z,998.50
2022-11-06T09:23:58.158Z,998.47
2022-11-06T09:25:03.822Z,998.49
2022-11-06T09:25:59.140Z,998.45
2022-11-06T09:26:58.170Z,998.44
2022-11-06T09:27:59.683Z,998.42
2022-11-06T09:28:58.142Z,998.47
2022-11-06T09:29:58.082Z,998.49
2022-11-06T09:30:59.194Z,998.49
2022-11-06T09:31:58.060Z,998.50
2022-11-06T09:32:58.055Z,998.46
2022-11-06T09:33:58.117Z,998.41
2022-11-06T09:34:58.021Z,998.36
2022-11-06T09:35:58.034Z,998.32
2022-11-06T09:36:58.129Z,998.27
2022-11-06T09:37:57.984Z,998.33
2022-11-06T09:38:57.982Z,998.35
2022-11-06T09:40:03.191Z,998.31
2022-11-06T09:40:58.997Z,998.27
2022-11-06T09:41:59.404Z,998.27
2022-11-06T09:42:57.933Z,998.27
2022-11-06T09:44:05.187Z,998.17
2022-11-06T09:44:58.945Z,998.20
2022-11-06T09:45:57.894Z,998.18
2022-11-06T09:46:57.885Z,998.07
2022-11-06T09:47:57.893Z,998.09
2022-11-06T09:48:57.873Z,998.07
2022-11-06T09:49:57.878Z,998.11
2022-11-06T09:50:57.876Z,998.08
2022-11-06T09:51:58.000Z,998.10
2022-11-06T09:53:03.062Z,998.12
2022-11-06T09:53:58.865Z,998.12
2022-11-06T09:55:00.294Z,998.08
2022-11-06T09:55:57.816Z,998.09
2022-11-06T09:56:57.786Z,998.06
2022-11-06T09:57:57.757Z,998.02
2022-11-06T09:58:57.745Z,998.05
2022-11-06T09:59:57.768Z,998.01
2022-11-06T10:00:57.786Z,998.04
2022-11-06T10:01:57.859Z,998.05
2022-11-06T10:02:57.784Z,997.99
2022-11-06T10:03:57.685Z,998.00
2022-11-06T10:04:57.717Z,997.96
2022-11-06T10:05:57.674Z,997.95
2022-11-06T10:06:57.668Z,997.90
2022-11-06T10:07:57.716Z,997.91
2022-11-06T10:08:57.644Z,997.93
2022-11-06T10:09:57.617Z,997.90
2022-11-06T10:10:57.612Z,997.96
2022-11-06T10:11:57.623Z,997.90
2022-11-06T10:12:57.616Z,997.88
2022-11-06T10:13:57.599Z,997.87
2022-11-06T10:14:57.558Z,997.86
2022-11-06T10:15:57.556Z,997.85
2022-11-06T10:16:57.538Z,997.82
2022-11-06T10:17:57.544Z,997.82
2022-11-06T10:18:57.554Z,997.83
2022-11-06T10:19:57.511Z,997.75
2022-11-06T10:20:57.489Z,997.75
2022-11-06T10:21:57.481Z,997.67
2022-11-06T10:22:57.472Z,997.62
2022-11-06T10:23:57.473Z,997.56
2022-11-06T10:24:57.509Z,997.60
2022-11-06T10:25:57.449Z,997.56
2022-11-06T10:26:57.429Z,997.54
2022-11-06T10:27:57.463Z,997.48
2022-11-06T10:28:57.442Z,997.47
2022-11-06T10:29:57.428Z,997.48
2022-11-06T10:30:57.391Z,997.48
2022-11-06T10:31:57.408Z,997.45
2022-11-06T10:32:57.370Z,997.44
2022-11-06T10:33:57.363Z,997.43
2022-11-06T10:34:57.347Z,997.48
2022-11-06T10:35:57.362Z,997.46
2022-11-06T10:36:57.402Z,997.42
2022-11-06T10:37:57.313Z,997.50
2022-11-06T10:38:57.390Z,997.48
2022-11-06T10:39:57.282Z,997.45
2022-11-06T10:40:57.287Z,997.43
2022-11-06T10:41:57.410Z,997.41
2022-11-06T10:42:57.273Z,997.42
2022-11-06T10:43:57.251Z,997.33
2022-11-06T10:44:57.271Z,997.45
2022-11-06T10:45:57.222Z,997.39
2022-11-06T10:46:57.201Z,997.30
2022-11-06T10:47:58.413Z,997.37
2022-11-06T10:48:57.222Z,997.37
2022-11-06T10:49:57.214Z,997.38
2022-11-06T10:50:57.182Z,997.28
2022-11-06T10:51:57.198Z,997.35
2022-11-06T10:52:57.216Z,997.31
2022-11-06T10:53:57.168Z,997.30
2022-11-06T10:54:57.119Z,997.27
2022-11-06T10:55:57.104Z,997.34
2022-11-06T10:56:57.159Z,997.32
2022-11-06T10:57:57.099Z,997.34
2022-11-06T10:58:57.114Z,997.29
2022-11-06T10:59:57.143Z,997.24
2022-11-06T11:00:57.068Z,997.26
2022-11-06T11:01:57.398Z,997.23
2022-11-06T11:02:57.027Z,997.29
2022-11-06T11:03:57.107Z,997.18
2022-11-06T11:04:58.210Z,997.12
2022-11-06T11:05:56.998Z,997.11
2022-11-06T11:06:57.020Z,997.06
2022-11-06T11:07:56.993Z,997.06
2022-11-06T11:08:56.979Z,997.04
2022-11-06T11:09:56.954Z,997.04
2022-11-06T11:11:04.889Z,997.07
2022-11-06T11:11:57.923Z,997.06
2022-11-06T11:12:56.914Z,997.09
2022-11-06T11:13:56.916Z,997.05
2022-11-06T11:14:56.894Z,996.98
2022-11-06T11:15:56.876Z,996.97
2022-11-06T11:16:56.942Z,996.98
2022-11-06T11:17:56.858Z,996.92
2022-11-06T11:18:56.848Z,996.94
2022-11-06T11:19:56.817Z,996.83
2022-11-06T11:20:56.825Z,996.89
2022-11-06T11:21:56.877Z,996.81
2022-11-06T11:22:56.880Z,996.80
2022-11-06T11:23:56.873Z,996.74
2022-11-06T11:24:56.774Z,996.70
2022-11-06T11:25:56.750Z,996.61
2022-11-06T11:26:56.747Z,996.54
2022-11-06T11:27:59.713Z,996.50
2022-11-06T11:28:57.767Z,996.50
2022-11-06T11:29:56.710Z,996.44
2022-11-06T11:30:56.700Z,996.44
2022-11-06T11:31:56.697Z,996.46
2022-11-06T11:32:56.799Z,996.48
2022-11-06T11:33:56.670Z,996.48
2022-11-06T11:34:57.160Z,996.39
2022-11-06T11:35:56.639Z,996.41
2022-11-06T11:36:56.631Z,996.40
2022-11-06T11:37:56.631Z,996.36
2022-11-06T11:38:56.610Z,996.33
2022-11-06T11:39:56.623Z,996.32
2022-11-06T11:40:56.633Z,996.28
2022-11-06T11:41:56.571Z,996.27
2022-11-06T11:42:56.587Z,996.21
2022-11-06T11:43:56.554Z,996.24
2022-11-06T11:44:56.552Z,996.13
2022-11-06T11:45:56.542Z,996.20
2022-11-06T11:46:56.626Z,996.19
2022-11-06T11:47:56.502Z,996.16
2022-11-06T11:48:56.504Z,996.10
2022-11-06T11:49:56.486Z,996.12
2022-11-06T11:50:56.482Z,996.12
2022-11-06T11:51:56.511Z,996.09
2022-11-06T11:52:56.468Z,996.00
2022-11-06T11:53:56.446Z,995.96
2022-11-06T11:54:56.448Z,995.92
2022-11-06T11:55:56.442Z,995.94
2022-11-06T11:57:05.204Z,995.84
2022-11-06T11:57:57.427Z,995.83
2022-11-06T11:58:56.555Z,995.82
2022-11-06T11:59:56.379Z,995.83
2022-11-06T12:00:56.391Z,995.82
2022-11-06T12:01:56.500Z,995.74
2022-11-06T12:02:56.499Z,995.69
2022-11-06T12:03:56.324Z,995.68
2022-11-06T12:04:56.317Z,995.63
2022-11-06T12:05:56.295Z,995.56
2022-11-06T12:06:56.440Z,995.59
2022-11-06T12:07:56.295Z,995.64
2022-11-06T12:08:56.303Z,995.58
2022-11-06T12:09:56.298Z,995.51
2022-11-06T12:10:56.295Z,995.49
2022-11-06T12:11:56.268Z,995.44
2022-11-06T12:12:56.235Z,995.41
2022-11-06T12:13:56.236Z,995.38
2022-11-06T12:14:56.256Z,995.34
2022-11-06T12:15:56.195Z,995.33
2022-11-06T12:16:56.197Z,995.39
2022-11-06T12:17:56.168Z,995.38